Time;durP1;ratioP1;P1;durP2;ratioP2;P2;SDS_P1;SDS_P2;PMS_P1;PMS_P2;Temp;Humidity;BMP_temperature;BMP_pressure;BME280_temperature;BME280_humidity;BME280_pressure;Samples;Min_cycle;Max_cycle;Signal;HPM_P1;HPM_P2
2023/12/03 00:00:53;;;;;;;33.78;20.35;;;3.00;99.90;;;;;;4991551;28;20128;-73
2023/12/03 00:03:20;;;;;;;29.33;15.77;;;3.00;99.90;;;;;;4992039;28;20033;-74
2023/12/03 00:05:46;;;;;;;28.48;16.83;;;3.00;99.90;;;;;;4992824;28;20057;-75
2023/12/03 00:08:12;;;;;;;29.50;15.80;;;3.00;99.90;;;;;;4992877;28;20158;-75
2023/12/03 00:10:37;;;;;;;24.88;13.05;;;3.00;99.90;;;;;;4992999;28;20034;-74
2023/12/03 00:13:03;;;;;;;28.15;15.25;;;3.00;99.90;;;;;;4993416;28;20050;-75
2023/12/03 00:15:29;;;;;;;23.23;11.15;;;3.10;99.90;;;;;;4992986;28;20030;-78
2023/12/03 00:17:59;;;;;;;17.00;7.93;;;3.10;99.90;;;;;;4991533;28;20037;-77
2023/12/03 00:20:24;;;;;;;14.88;7.03;;;3.10;99.90;;;;;;4990628;28;20034;-76
2023/12/03 00:22:50;;;;;;;16.25;7.30;;;3.20;99.90;;;;;;4992537;28;20044;-76
2023/12/03 00:25:15;;;;;;;13.65;6.43;;;3.20;99.90;;;;;;4992930;28;20489;-76
2023/12/03 00:27:41;;;;;;;12.70;5.78;;;3.30;99.90;;;;;;4990696;28;20026;-76
2023/12/03 00:30:07;;;;;;;11.02;5.10;;;3.20;99.90;;;;;;4993019;28;20466;-76
2023/12/03 00:32:33;;;;;;;11.50;4.80;;;3.20;99.90;;;;;;4992156;28;20035;-76
2023/12/03 00:34:59;;;;;;;5.55;3.15;;;3.20;99.90;;;;;;4991552;28;20022;-75
2023/12/03 00:37:24;;;;;;;8.48;3.58;;;3.10;99.90;;;;;;4991077;28;20038;-75
2023/12/03 00:39:50;;;;;;;4.05;2.90;;;3.10;99.90;;;;;;4990129;28;20022;-75
2023/12/03 00:42:15;;;;;;;5.80;2.95;;;3.10;99.90;;;;;;4991602;28;20073;-74
2023/12/03 00:44:41;;;;;;;6.55;2.70;;;3.10;99.90;;;;;;4989068;28;20457;-74
2023/12/03 00:47:06;;;;;;;4.35;3.00;;;3.20;99.90;;;;;;4990593;28;20114;-74
2023/12/03 00:49:33;;;;;;;4.10;2.78;;;3.20;99.90;;;;;;4995475;28;20097;-75
2023/12/03 00:51:59;;;;;;;3.75;2.50;;;3.30;99.90;;;;;;4994483;28;20126;-74
2023/12/03 00:54:24;;;;;;;3.78;2.60;;;3.30;99.90;;;;;;4994708;28;20041;-74
2023/12/03 00:56:50;;;;;;;4.43;2.40;;;3.20;99.90;;;;;;4992698;28;20065;-75
2023/12/03 00:59:16;;;;;;;5.50;2.63;;;3.20;99.90;;;;;;4993395;28;20062;-73
2023/12/03 01:01:42;;;;;;;5.45;2.72;;;3.20;99.90;;;;;;4993185;28;20451;-73
2023/12/03 01:04:07;;;;;;;5.00;2.70;;;3.10;99.90;;;;;;4990306;28;20081;-74
2023/12/03 01:06:33;;;;;;;4.13;2.72;;;3.20;99.90;;;;;;4989741;28;20038;-75
2023/12/03 01:08:58;;;;;;;7.18;3.13;;;3.20;99.90;;;;;;4992176;28;20034;-74
2023/12/03 01:11:24;;;;;;;5.82;3.50;;;3.20;99.90;;;;;;4992502;28;20062;-74
2023/12/03 01:13:49;;;;;;;5.88;3.20;;;3.20;99.90;;;;;;4993248;28;20106;-73
2023/12/03 01:16:16;;;;;;;4.93;3.45;;;3.10;99.90;;;;;;4995129;28;20066;-74
2023/12/03 01:18:42;;;;;;;5.80;3.28;;;3.10;99.90;;;;;;4995563;28;20034;-74
2023/12/03 01:21:08;;;;;;;5.30;3.30;;;3.10;99.90;;;;;;4994230;28;20042;-74
2023/12/03 01:23:33;;;;;;;8.23;3.85;;;3.10;99.90;;;;;;4991948;28;20959;-74
2023/12/03 01:25:59;;;;;;;7.95;4.50;;;3.00;99.90;;;;;;4994373;28;20030;-74
2023/12/03 01:28:25;;;;;;;11.32;4.88;;;3.00;99.90;;;;;;4992904;28;20030;-74
2023/12/03 01:30:50;;;;;;;8.05;4.78;;;3.00;99.90;;;;;;4994539;28;20033;-74
2023/12/03 01:33:16;;;;;;;11.95;5.78;;;2.90;99.90;;;;;;4995490;28;20034;-75
2023/12/03 01:35:41;;;;;;;11.25;6.00;;;2.90;99.90;;;;;;4994519;28;20045;-75
2023/12/03 01:38:07;;;;;;;11.50;6.15;;;2.80;99.90;;;;;;4992452;28;20374;-75
2023/12/03 01:40:33;;;;;;;14.20;6.90;;;2.80;99.90;;;;;;4994992;28;20081;-75
2023/12/03 01:42:59;;;;;;;15.75;7.80;;;2.70;99.90;;;;;;4994969;28;20026;-74
2023/12/03 01:45:25;;;;;;;15.82;8.40;;;2.60;99.90;;;;;;4992693;28;20043;-74
2023/12/03 01:47:50;;;;;;;18.50;8.18;;;2.70;99.90;;;;;;4994712;28;20081;-74
2023/12/03 01:50:17;;;;;;;18.42;9.10;;;2.60;99.90;;;;;;4994722;28;20038;-73
2023/12/03 01:52:42;;;;;;;18.50;8.93;;;2.50;99.90;;;;;;4993395;28;20030;-75
2023/12/03 01:55:11;;;;;;;19.63;9.52;;;2.50;99.90;;;;;;4993798;28;20061;-75
2023/12/03 01:57:37;;;;;;;19.17;9.70;;;2.50;99.90;;;;;;4994813;28;20034;-74
2023/12/03 02:00:05;;;;;;;21.77;10.98;;;2.50;99.90;;;;;;4993291;28;20034;-74
2023/12/03 02:02:31;;;;;;;24.25;12.40;;;2.50;99.90;;;;;;4994583;28;20481;-75
2023/12/03 02:04:57;;;;;;;24.90;12.85;;;2.40;99.90;;;;;;4994566;28;20018;-74
2023/12/03 02:07:22;;;;;;;28.85;14.38;;;2.40;99.90;;;;;;4993965;28;20476;-74
2023/12/03 02:09:48;;;;;;;28.40;15.30;;;2.40;99.90;;;;;;4994317;28;20039;-75
2023/12/03 02:12:14;;;;;;;31.48;16.02;;;2.40;99.90;;;;;;4992096;28;20471;-74
2023/12/03 02:14:40;;;;;;;30.00;15.55;;;2.40;99.90;;;;;;4993297;28;20696;-75
2023/12/03 02:17:06;;;;;;;30.25;15.32;;;2.40;99.90;;;;;;4994332;28;20402;-75
2023/12/03 02:19:31;;;;;;;30.55;15.57;;;2.40;99.90;;;;;;4994162;28;20470;-74
2023/12/03 02:21:57;;;;;;;31.90;16.42;;;2.50;99.90;;;;;;4994017;28;20038;-75
2023/12/03 02:24:22;;;;;;;32.00;16.67;;;2.50;99.90;;;;;;4994453;28;20050;-74
2023/12/03 02:26:48;;;;;;;28.40;14.65;;;2.50;99.90;;;;;;4994170;28;20027;-74
2023/12/03 02:29:13;;;;;;;25.08;13.40;;;2.50;99.90;;;;;;4994205;28;20409;-74
2023/12/03 02:31:39;;;;;;;22.67;12.23;;;2.60;99.90;;;;;;4992024;28;20041;-74
2023/12/03 02:34:08;;;;;;;37.15;12.07;;;2.60;99.90;;;;;;4992909;28;20370;-75
2023/12/03 02:36:34;;;;;;;19.60;9.57;;;2.60;99.90;;;;;;4994275;28;20113;-75
2023/12/03 02:38:59;;;;;;;18.60;8.63;;;2.60;99.90;;;;;;4994330;28;20027;-74
2023/12/03 02:41:25;;;;;;;17.92;7.75;;;2.60;99.90;;;;;;4994007;28;20026;-74
2023/12/03 02:43:50;;;;;;;14.15;7.18;;;2.60;99.90;;;;;;4993127;28;20061;-75
2023/12/03 02:46:16;;;;;;;12.80;6.10;;;2.60;99.90;;;;;;4992364;28;20802;-75
2023/12/03 02:48:41;;;;;;;11.18;5.43;;;2.60;99.90;;;;;;4993798;28;20117;-75
2023/12/03 02:51:07;;;;;;;10.07;4.80;;;2.70;99.90;;;;;;4992761;28;20038;-74
2023/12/03 02:53:36;;;;;;;8.73;4.72;;;2.70;99.90;;;;;;4992044;28;20113;-74
2023/12/03 02:56:01;;;;;;;7.63;4.15;;;2.90;99.90;;;;;;4992121;28;20058;-74
2023/12/03 02:58:28;;;;;;;7.75;4.22;;;2.90;99.90;;;;;;4993959;28;20053;-74
2023/12/03 03:00:53;;;;;;;5.75;3.45;;;2.90;99.90;;;;;;4993745;28;20406;-75
2023/12/03 03:03:19;;;;;;;4.45;2.38;;;3.00;99.90;;;;;;4993207;28;20034;-75
2023/12/03 03:05:44;;;;;;;3.67;2.00;;;2.90;99.90;;;;;;4993138;28;20030;-74
2023/12/03 03:08:10;;;;;;;2.75;2.05;;;2.90;99.90;;;;;;4993150;28;20031;-74
2023/12/03 03:10:35;;;;;;;2.92;2.00;;;3.00;99.90;;;;;;4991054;28;20034;-74
2023/12/03 03:13:01;;;;;;;3.33;2.42;;;3.00;99.90;;;;;;4990737;28;20034;-75
2023/12/03 03:15:27;;;;;;;3.17;2.22;;;3.00;99.90;;;;;;4991849;28;20026;-75
2023/12/03 03:17:52;;;;;;;3.58;2.45;;;3.00;99.90;;;;;;4992987;28;20034;-74
2023/12/03 03:20:21;;;;;;;4.68;2.78;;;3.00;99.90;;;;;;4993331;28;20034;-75
2023/12/03 03:22:47;;;;;;;5.05;3.20;;;3.00;99.90;;;;;;4993448;28;20077;-75
2023/12/03 03:25:13;;;;;;;8.77;4.47;;;3.00;99.90;;;;;;4989812;28;20702;-74
2023/12/03 03:27:39;;;;;;;11.30;5.50;;;3.00;99.90;;;;;;4993760;28;20500;-75
2023/12/03 03:30:06;;;;;;;10.00;5.47;;;2.90;99.90;;;;;;4993449;28;20027;-75
2023/12/03 03:32:32;;;;;;;14.25;7.22;;;2.90;99.90;;;;;;4992723;28;20026;-74
2023/12/03 03:34:58;;;;;;;14.73;7.22;;;2.80;99.90;;;;;;4992946;28;20026;-75
2023/12/03 03:37:24;;;;;;;22.25;11.35;;;2.70;99.90;;;;;;4990094;28;20393;-74
2023/12/03 03:39:49;;;;;;;27.88;14.63;;;2.70;99.90;;;;;;4992513;28;20382;-75
2023/12/03 03:42:15;;;;;;;31.10;17.60;;;2.60;99.90;;;;;;4992359;28;20062;-74
2023/12/03 03:44:40;;;;;;;40.20;22.63;;;2.60;99.90;;;;;;4991582;28;20034;-75
2023/12/03 03:47:06;;;;;;;43.13;25.25;;;2.50;99.90;;;;;;4992197;28;20038;-74
2023/12/03 03:49:31;;;;;;;47.97;28.40;;;2.50;99.90;;;;;;4993274;28;20074;-74
2023/12/03 03:51:57;;;;;;;57.00;33.15;;;2.50;99.90;;;;;;4992222;28;20038;-74
2023/12/03 03:54:23;;;;;;;59.75;35.63;;;2.50;99.90;;;;;;4993268;28;20518;-74
2023/12/03 03:56:48;;;;;;;68.10;40.75;;;2.50;99.90;;;;;;4993306;28;20077;-75
2023/12/03 03:59:14;;;;;;;76.57;44.90;;;2.50;99.90;;;;;;5001174;28;20106;-75
2023/12/03 04:01:43;;;;;;;74.15;45.58;;;2.60;99.90;;;;;;4992809;28;20504;-74
2023/12/03 04:04:09;;;;;;;79.07;46.33;;;2.60;99.90;;;;;;4991982;28;20031;-74
2023/12/03 04:06:44;;;;;;;85.78;47.20;;;2.70;99.90;;;;;;4991797;28;20117;-75
2023/12/03 04:09:10;;;;;;;79.80;49.53;;;2.70;99.90;;;;;;4993229;28;20113;-75
2023/12/03 04:11:43;;;;;;;79.40;51.20;;;2.80;99.90;;;;;;4994870;28;20527;-74
2023/12/03 04:14:15;;;;;;;87.45;53.58;;;2.80;99.90;;;;;;5001490;28;20077;-75
2023/12/03 04:16:40;;;;;;;84.35;50.97;;;2.80;99.90;;;;;;4990182;28;20053;-75
2023/12/03 04:19:06;;;;;;;79.65;50.53;;;2.80;99.90;;;;;;4993005;28;20110;-75
2023/12/03 04:21:32;;;;;;;79.43;51.65;;;2.80;99.90;;;;;;4993103;28;20708;-74
2023/12/03 04:23:58;;;;;;;84.70;52.00;;;2.80;99.90;;;;;;4998868;28;20108;-75
2023/12/03 04:26:24;;;;;;;78.75;51.10;;;2.80;99.90;;;;;;4999484;28;20038;-74
2023/12/03 04:28:49;;;;;;;80.65;52.83;;;2.80;99.90;;;;;;5003625;28;20045;-75
2023/12/03 04:31:16;;;;;;;73.10;50.70;;;2.70;99.90;;;;;;5018192;28;20390;-74
2023/12/03 04:33:42;;;;;;;77.03;52.63;;;2.70;99.90;;;;;;5003391;28;20030;-74
2023/12/03 04:36:08;;;;;;;71.15;49.25;;;2.60;99.90;;;;;;5004697;28;20048;-75
2023/12/03 04:38:35;;;;;;;77.95;50.20;;;2.60;99.90;;;;;;4997158;28;20032;-74
2023/12/03 04:41:01;;;;;;;71.88;49.33;;;2.50;99.90;;;;;;4995150;28;20112;-74
2023/12/03 04:43:26;;;;;;;73.28;50.28;;;2.50;99.90;;;;;;4995848;28;20066;-75
2023/12/03 04:45:52;;;;;;;73.68;50.97;;;2.40;99.90;;;;;;4996302;28;20125;-74
2023/12/03 04:48:17;;;;;;;72.80;49.35;;;2.40;99.90;;;;;;4997203;28;20529;-75
2023/12/03 04:50:43;;;;;;;73.18;48.50;;;2.40;99.90;;;;;;4993478;28;20036;-75
2023/12/03 04:53:09;;;;;;;81.45;47.33;;;2.30;99.90;;;;;;4992365;28;20031;-74
2023/12/03 04:55:34;;;;;;;70.25;49.00;;;2.20;99.90;;;;;;4991784;28;20090;-75
2023/12/03 04:58:00;;;;;;;72.03;48.85;;;2.20;99.90;;;;;;4995646;28;20101;-75
2023/12/03 05:00:25;;;;;;;68.90;47.95;;;2.20;99.90;;;;;;4990402;28;20084;-74
2023/12/03 05:02:51;;;;;;;66.63;47.30;;;2.10;99.90;;;;;;4992693;28;20482;-75
2023/12/03 05:05:16;;;;;;;67.18;48.30;;;2.10;99.90;;;;;;4995333;28;20037;-75
2023/12/03 05:07:42;;;;;;;77.82;46.90;;;2.10;99.90;;;;;;4991950;28;20039;-75
2023/12/03 05:10:08;;;;;;;64.95;45.05;;;2.00;99.90;;;;;;4994886;28;20029;-75
2023/12/03 05:12:34;;;;;;;66.70;47.70;;;2.00;99.90;;;;;;4991589;28;20061;-74
2023/12/03 05:14:59;;;;;;;70.10;46.78;;;2.00;99.90;;;;;;4996084;28;20023;-75
2023/12/03 05:17:25;;;;;;;67.72;46.88;;;1.90;99.90;;;;;;4994590;28;20445;-74
2023/12/03 05:19:50;;;;;;;65.65;45.88;;;1.90;99.90;;;;;;4995665;28;20520;-74
2023/12/03 05:22:16;;;;;;;63.33;45.97;;;1.90;99.90;;;;;;4996113;28;20030;-74
2023/12/03 05:24:41;;;;;;;94.15;48.35;;;1.90;99.90;;;;;;4995160;28;20030;-75
2023/12/03 05:27:07;;;;;;;63.30;43.78;;;1.80;99.90;;;;;;4995962;28;20023;-74
2023/12/03 05:29:32;;;;;;;65.72;44.85;;;1.80;99.90;;;;;;4994438;28;20370;-75
2023/12/03 05:31:58;;;;;;;62.83;44.40;;;1.80;99.90;;;;;;4994528;28;20037;-74
2023/12/03 05:34:23;;;;;;;63.50;43.42;;;1.80;99.90;;;;;;4992842;28;20066;-75
2023/12/03 05:36:50;;;;;;;65.15;46.00;;;1.70;99.90;;;;;;4993812;28;20085;-76
2023/12/03 05:39:23;;;;;;;66.43;45.22;;;1.80;99.90;;;;;;4995637;28;20027;-75
2023/12/03 05:41:48;;;;;;;92.97;47.47;;;1.70;99.90;;;;;;4995613;28;20045;-76
2023/12/03 05:44:14;;;;;;;64.60;45.33;;;1.70;99.90;;;;;;4995601;28;20030;-74
2023/12/03 05:46:41;;;;;;;66.63;45.80;;;1.70;99.90;;;;;;4995312;28;20035;-76
2023/12/03 05:49:08;;;;;;;64.00;43.88;;;1.70;99.90;;;;;;4995309;28;20019;-75
2023/12/03 05:51:34;;;;;;;60.60;43.50;;;1.60;99.90;;;;;;4993927;28;20035;-75
2023/12/03 05:53:59;;;;;;;65.90;44.53;;;1.60;99.90;;;;;;5005933;28;20080;-75
2023/12/03 05:56:25;;;;;;;135.68;51.55;;;1.60;99.90;;;;;;5010125;28;20093;-74
2023/12/03 05:58:50;;;;;;;63.67;42.03;;;1.50;99.90;;;;;;4994497;28;20461;-76
2023/12/03 06:01:23;;;;;;;64.88;42.72;;;1.50;99.90;;;;;;4991478;28;20033;-74
2023/12/03 06:03:49;;;;;;;65.85;42.13;;;1.50;99.90;;;;;;4995057;28;20118;-74
2023/12/03 06:06:15;;;;;;;63.83;42.90;;;1.50;99.90;;;;;;4994129;28;20110;-75
2023/12/03 06:08:41;;;;;;;61.28;40.25;;;1.50;99.90;;;;;;4995297;28;20034;-74
2023/12/03 06:11:06;;;;;;;74.00;42.47;;;1.50;99.90;;;;;;4995198;28;20027;-75
2023/12/03 06:13:32;;;;;;;94.93;46.88;;;1.50;99.90;;;;;;4993794;28;20034;-75
2023/12/03 06:15:57;;;;;;;61.15;42.15;;;1.50;99.90;;;;;;4993902;28;20030;-75
2023/12/03 06:18:23;;;;;;;67.60;42.72;;;1.50;99.90;;;;;;4992197;28;20036;-74
2023/12/03 06:20:49;;;;;;;65.07;42.28;;;1.50;99.90;;;;;;4994595;28;20076;-74
2023/12/03 06:23:15;;;;;;;67.40;42.83;;;1.50;99.90;;;;;;4994721;28;20026;-74
2023/12/03 06:25:41;;;;;;;66.25;42.22;;;1.50;99.90;;;;;;4993311;28;20405;-75
2023/12/03 06:28:07;;;;;;;69.00;41.13;;;1.40;99.90;;;;;;4994532;28;20034;-75
2023/12/03 06:30:32;;;;;;;69.97;43.13;;;1.40;99.90;;;;;;4994526;28;20030;-75
2023/12/03 06:32:58;;;;;;;72.43;42.97;;;1.40;99.90;;;;;;4993055;28;20399;-74
2023/12/03 06:35:24;;;;;;;65.93;42.65;;;1.40;99.90;;;;;;4994424;28;20045;-73
2023/12/03 06:37:56;;;;;;;70.95;42.58;;;1.30;99.90;;;;;;4993815;28;20037;-76
2023/12/03 06:40:22;;;;;;;66.47;42.40;;;1.40;99.90;;;;;;4993286;28;20037;-72
2023/12/03 06:42:48;;;;;;;75.55;43.53;;;1.30;99.90;;;;;;4993646;28;20045;-73
2023/12/03 06:45:14;;;;;;;67.88;42.28;;;1.30;99.90;;;;;;4993398;28;20494;-73
2023/12/03 06:47:39;;;;;;;150.15;55.58;;;1.30;99.90;;;;;;4994346;28;20030;-73
2023/12/03 06:50:06;;;;;;;83.18;47.53;;;1.30;99.90;;;;;;4992789;28;20058;-74
2023/12/03 06:52:31;;;;;;;138.75;51.47;;;1.30;99.90;;;;;;4992834;28;20113;-73
2023/12/03 06:54:57;;;;;;;88.22;45.92;;;1.30;99.90;;;;;;4992658;28;20122;-74
2023/12/03 06:57:22;;;;;;;123.10;50.25;;;1.30;99.90;;;;;;4994104;28;20045;-74
2023/12/03 06:59:48;;;;;;;80.57;47.05;;;1.30;99.90;;;;;;4993896;28;20035;-73
2023/12/03 07:02:14;;;;;;;78.63;49.05;;;1.30;99.90;;;;;;4992516;28;20033;-74
2023/12/03 07:04:40;;;;;;;79.15;47.35;;;1.30;99.90;;;;;;4993734;28;20085;-74
2023/12/03 07:07:06;;;;;;;160.90;55.42;;;1.30;99.90;;;;;;4992907;28;20066;-73
2023/12/03 07:09:32;;;;;;;82.57;49.42;;;1.30;99.90;;;;;;4993893;28;20073;-74
2023/12/03 07:11:57;;;;;;;150.85;57.65;;;1.30;99.90;;;;;;4992483;28;20122;-74
2023/12/03 07:14:23;;;;;;;92.20;51.00;;;1.30;99.90;;;;;;4992614;28;20030;-73
2023/12/03 07:16:48;;;;;;;106.28;53.08;;;1.30;99.90;;;;;;4992597;28;20054;-73
2023/12/03 07:19:14;;;;;;;130.77;53.58;;;1.30;99.90;;;;;;4992145;28;20064;-75
2023/12/03 07:21:39;;;;;;;91.82;50.88;;;1.30;99.90;;;;;;4993199;28;20390;-74
2023/12/03 07:24:05;;;;;;;121.38;55.50;;;1.30;99.90;;;;;;4992331;28;20485;-74
2023/12/03 07:26:31;;;;;;;91.68;53.25;;;1.30;99.90;;;;;;4992816;28;20042;-74
2023/12/03 07:28:56;;;;;;;93.30;53.00;;;1.30;99.90;;;;;;4993548;28;20076;-74
2023/12/03 07:31:22;;;;;;;102.05;55.45;;;1.40;99.90;;;;;;4993668;28;20029;-74
2023/12/03 07:33:48;;;;;;;99.40;52.05;;;1.40;99.90;;;;;;4993517;28;20038;-73
2023/12/03 07:36:13;;;;;;;116.45;57.10;;;1.40;99.90;;;;;;4991614;28;20054;-74
2023/12/03 07:38:39;;;;;;;97.20;54.55;;;1.50;99.90;;;;;;4993278;28;20027;-74
2023/12/03 07:41:14;;;;;;;108.70;53.58;;;1.50;99.90;;;;;;4992518;28;20038;-74
2023/12/03 07:43:39;;;;;;;95.78;51.35;;;1.60;99.90;;;;;;4993410;28;20049;-74
2023/12/03 07:46:06;;;;;;;213.38;68.88;;;1.60;99.90;;;;;;4993212;28;20494;-75
2023/12/03 07:48:31;;;;;;;98.57;50.20;;;1.60;99.90;;;;;;4992957;28;20026;-74
2023/12/03 07:50:57;;;;;;;130.10;55.10;;;1.60;99.90;;;;;;4992119;28;20521;-74
2023/12/03 07:53:22;;;;;;;119.32;53.33;;;1.50;99.90;;;;;;4991399;28;20034;-74
2023/12/03 07:55:49;;;;;;;98.50;51.75;;;1.50;99.90;;;;;;4992957;28;20050;-74
2023/12/03 07:58:15;;;;;;;91.53;49.03;;;1.60;99.90;;;;;;4993160;28;20483;-74
2023/12/03 08:00:41;;;;;;;120.15;51.72;;;1.50;99.90;;;;;;4992675;28;20054;-74
2023/12/03 08:03:07;;;;;;;93.68;50.92;;;1.50;99.90;;;;;;4991538;28;20073;-74
2023/12/03 08:05:33;;;;;;;92.13;50.83;;;1.50;99.90;;;;;;4991194;28;20370;-74
2023/12/03 08:07:58;;;;;;;93.07;49.72;;;1.50;99.90;;;;;;4992664;28;20030;-74
2023/12/03 08:10:24;;;;;;;101.13;51.40;;;1.50;99.90;;;;;;4992716;28;20034;-74
2023/12/03 08:12:49;;;;;;;87.72;49.22;;;1.50;99.90;;;;;;4992842;28;20065;-74
2023/12/03 08:15:15;;;;;;;81.68;47.20;;;1.50;99.90;;;;;;4992736;28;20030;-74
2023/12/03 08:17:40;;;;;;;83.97;47.88;;;1.50;99.90;;;;;;4991882;28;20085;-74
2023/12/03 08:20:07;;;;;;;90.10;47.28;;;1.50;99.90;;;;;;4993058;28;20100;-74
2023/12/03 08:22:32;;;;;;;80.80;45.92;;;1.50;99.90;;;;;;4991242;28;20074;-74
2023/12/03 08:24:58;;;;;;;78.20;46.97;;;1.60;99.90;;;;;;4991596;28;20100;-74
2023/12/03 08:27:24;;;;;;;86.65;46.78;;;1.70;99.90;;;;;;4992926;28;20078;-74
2023/12/03 08:29:49;;;;;;;79.75;45.08;;;1.70;99.90;;;;;;4992671;28;20414;-74
2023/12/03 08:32:15;;;;;;;76.53;44.65;;;1.80;99.90;;;;;;4992339;28;20426;-74
2023/12/03 08:34:40;;;;;;;73.93;42.63;;;1.80;99.90;;;;;;4991485;28;20117;-74
2023/12/03 08:37:12;;;;;;;79.10;43.05;;;1.90;99.90;;;;;;4990754;28;20046;-74
2023/12/03 08:39:52;;;;;;;70.22;41.10;;;1.90;99.90;;;;;;4991080;28;20034;-74
2023/12/03 08:42:19;;;;;;;70.75;39.35;;;2.00;99.90;;;;;;4990564;28;20031;-74
2023/12/03 08:44:45;;;;;;;86.30;41.22;;;2.10;99.90;;;;;;4990177;28;20029;-75
2023/12/03 08:47:11;;;;;;;65.10;39.35;;;2.10;99.90;;;;;;4991522;28;20390;-74
2023/12/03 08:49:36;;;;;;;66.65;37.28;;;2.10;99.90;;;;;;4991134;28;20034;-74
2023/12/03 08:52:02;;;;;;;70.85;38.25;;;2.10;99.90;;;;;;4990765;28;20034;-73
2023/12/03 08:54:27;;;;;;;57.55;36.08;;;2.10;99.90;;;;;;4988986;28;20026;-74
2023/12/03 08:56:53;;;;;;;62.25;36.03;;;2.10;99.90;;;;;;4990719;28;20077;-74
2023/12/03 08:59:21;;;;;;;62.10;37.25;;;2.10;99.90;;;;;;4991582;28;20041;-75
2023/12/03 09:01:46;;;;;;;93.13;40.35;;;2.20;99.90;;;;;;4990349;28;20031;-74
2023/12/03 09:04:12;;;;;;;64.95;38.78;;;2.10;99.90;;;;;;4985234;28;20727;-75
2023/12/03 09:06:40;;;;;;;59.22;36.03;;;2.10;99.90;;;;;;4988702;28;20554;-74
2023/12/03 09:09:06;;;;;;;57.60;35.70;;;2.10;99.90;;;;;;4992649;28;20085;-73
2023/12/03 09:11:35;;;;;;;53.38;32.42;;;2.20;99.90;;;;;;4991806;28;20517;-73
2023/12/03 09:14:00;;;;;;;56.63;34.35;;;2.20;99.90;;;;;;4994066;28;20046;-73
2023/12/03 09:16:26;;;;;;;56.00;33.78;;;2.30;99.90;;;;;;4994706;28;20818;-74
2023/12/03 09:18:51;;;;;;;52.55;32.65;;;2.30;99.90;;;;;;4992888;28;20493;-74
2023/12/03 09:21:17;;;;;;;57.38;34.00;;;2.40;99.90;;;;;;4993544;28;20030;-73
2023/12/03 09:23:43;;;;;;;55.88;33.95;;;2.50;99.90;;;;;;4993944;28;20038;-73
2023/12/03 09:26:09;;;;;;;49.85;31.17;;;2.50;99.90;;;;;;4991929;28;20096;-74
2023/12/03 09:28:35;;;;;;;54.80;33.42;;;2.60;99.90;;;;;;4994933;28;20014;-75
2023/12/03 09:31:01;;;;;;;53.15;31.00;;;2.60;99.90;;;;;;4992994;28;20027;-74
2023/12/03 09:33:27;;;;;;;48.40;31.02;;;2.60;99.90;;;;;;4990984;28;20527;-74
2023/12/03 09:36:13;;;;;;;49.70;28.77;;;2.60;99.90;;;;;;4994624;28;20101;-74
2023/12/03 09:38:39;;;;;;;46.42;29.88;;;2.70;99.90;;;;;;4987151;28;20030;-73
2023/12/03 09:41:08;;;;;;;47.67;30.98;;;2.70;99.90;;;;;;4992463;28;20084;-73
2023/12/03 09:43:38;;;;;;;48.08;28.75;;;2.70;99.90;;;;;;4992560;28;20053;-74
2023/12/03 09:46:08;;;;;;;47.78;29.90;;;2.70;99.90;;;;;;5008255;28;20030;-74
2023/12/03 09:48:39;;;;;;;47.97;28.70;;;2.90;99.90;;;;;;4993887;28;20027;-74
2023/12/03 09:51:05;;;;;;;42.63;25.70;;;3.00;99.90;;;;;;4991353;28;20030;-73
2023/12/03 09:53:36;;;;;;;45.40;26.42;;;3.30;99.90;;;;;;4993036;28;20103;-74
2023/12/03 09:56:02;;;;;;;42.75;25.20;;;3.70;99.90;;;;;;4993167;28;20074;-74
2023/12/03 09:58:28;;;;;;;38.47;23.65;;;4.20;99.90;;;;;;4991736;28;20032;-74
2023/12/03 10:00:55;;;;;;;37.63;22.88;;;4.80;99.90;;;;;;4993145;28;20101;-74
2023/12/03 10:03:20;;;;;;;40.25;23.60;;;4.70;99.90;;;;;;4991769;28;20065;-74
2023/12/03 10:05:49;;;;;;;38.85;23.63;;;4.50;99.90;;;;;;4990040;28;20042;-73
2023/12/03 10:08:15;;;;;;;38.60;22.40;;;4.30;99.90;;;;;;4990239;28;20038;-73
2023/12/03 10:10:43;;;;;;;38.58;22.80;;;4.00;99.90;;;;;;4993073;28;20628;-73
2023/12/03 10:13:13;;;;;;;37.10;21.13;;;3.80;99.90;;;;;;4992058;28;20466;-73
2023/12/03 10:15:39;;;;;;;38.00;22.60;;;3.60;99.90;;;;;;4992663;28;20085;-73
2023/12/03 10:18:05;;;;;;;38.33;23.75;;;3.40;99.90;;;;;;4992925;28;20042;-73
2023/12/03 10:20:31;;;;;;;37.85;22.40;;;3.30;99.90;;;;;;4991675;28;20018;-73
2023/12/03 10:23:03;;;;;;;39.25;24.63;;;3.30;99.90;;;;;;4988905;28;20685;-73
2023/12/03 10:25:34;;;;;;;35.10;21.48;;;3.20;99.90;;;;;;4991168;28;20118;-74
2023/12/03 10:28:04;;;;;;;38.97;21.40;;;3.10;99.90;;;;;;4991273;28;20037;-73
2023/12/03 10:30:31;;;;;;;36.55;21.20;;;3.00;99.90;;;;;;4991471;28;20081;-73
2023/12/03 10:32:58;;;;;;;38.15;22.15;;;3.10;99.90;;;;;;4990979;28;20258;-72
2023/12/03 10:35:24;;;;;;;35.92;22.30;;;3.10;99.90;;;;;;4987992;28;20178;-72
2023/12/03 10:37:51;;;;;;;37.15;21.65;;;3.20;99.90;;;;;;4993369;28;20089;-73
2023/12/03 10:40:20;;;;;;;37.60;22.15;;;3.20;99.90;;;;;;4992297;28;20032;-73
2023/12/03 10:42:46;;;;;;;38.95;22.52;;;3.30;99.90;;;;;;4993568;28;20053;-74
2023/12/03 10:45:13;;;;;;;34.58;20.65;;;3.40;99.90;;;;;;4993580;28;20026;-73
2023/12/03 10:47:40;;;;;;;34.05;19.92;;;3.50;99.90;;;;;;4993558;28;20061;-74
2023/12/03 10:50:08;;;;;;;35.25;18.98;;;3.50;99.90;;;;;;4992325;28;20061;-74
2023/12/03 10:52:37;;;;;;;37.50;21.08;;;3.40;99.90;;;;;;4991520;28;20133;-73
2023/12/03 10:55:04;;;;;;;34.42;18.52;;;3.40;99.90;;;;;;4993780;28;20434;-74
2023/12/03 10:57:31;;;;;;;33.33;18.63;;;3.40;99.90;;;;;;4991673;28;20398;-75
2023/12/03 11:00:09;;;;;;;35.42;19.90;;;3.30;99.90;;;;;;4993632;28;20084;-73
2023/12/03 11:03:08;;;;;;;35.90;19.45;;;3.40;99.90;;;;;;4988247;28;20045;-74
2023/12/03 11:05:42;;;;;;;32.83;18.38;;;3.40;99.90;;;;;;4991588;28;20044;-75
2023/12/03 11:08:08;;;;;;;29.70;17.88;;;3.40;99.90;;;;;;4989006;28;20040;-75
2023/12/03 11:10:33;;;;;;;32.50;18.15;;;3.50;99.90;;;;;;4991207;28;20030;-75
2023/12/03 11:13:00;;;;;;;30.95;17.67;;;3.50;99.90;;;;;;4989971;28;20026;-74
2023/12/03 11:15:27;;;;;;;29.73;17.83;;;3.60;99.90;;;;;;4990828;28;20027;-74
2023/12/03 11:17:53;;;;;;;27.73;15.88;;;3.60;99.90;;;;;;4993029;28;20030;-75
2023/12/03 11:20:30;;;;;;;31.60;16.92;;;3.60;99.90;;;;;;4993242;28;20034;-75
2023/12/03 11:23:24;;;;;;;28.23;15.93;;;3.60;99.90;;;;;;4991848;28;20054;-75
2023/12/03 11:25:55;;;;;;;29.60;16.27;;;3.60;99.90;;;;;;4990819;28;20382;-74
2023/12/03 11:28:22;;;;;;;;;;;3.50;99.90;;;;;;4987845;28;20037;-74
2023/12/03 11:30:48;;;;;;;29.80;16.95;;;3.40;99.90;;;;;;4992730;28;19948;-74
2023/12/03 11:33:14;;;;;;;29.27;16.50;;;3.30;99.90;;;;;;4991169;28;20435;-74
2023/12/03 11:35:42;;;;;;;29.55;16.10;;;3.30;99.90;;;;;;4992743;28;20026;-74
2023/12/03 11:38:34;;;;;;;30.73;18.05;;;3.30;99.90;;;;;;4989271;28;20069;-74
2023/12/03 11:41:01;;;;;;;33.35;18.58;;;3.20;99.90;;;;;;4981016;28;20038;-73
2023/12/03 11:43:28;;;;;;;31.00;17.00;;;3.30;99.90;;;;;;4988816;28;20035;-73
2023/12/03 11:45:54;;;;;;;30.92;16.90;;;3.30;99.90;;;;;;4990107;28;20435;-74
2023/12/03 11:48:22;;;;;;;30.13;16.63;;;3.30;99.90;;;;;;4988582;28;20034;-75
2023/12/03 11:50:49;;;;;;;26.83;14.68;;;3.30;99.90;;;;;;4991060;28;20422;-74
2023/12/03 11:53:16;;;;;;;29.70;17.30;;;3.40;99.90;;;;;;4992157;28;20047;-74
2023/12/03 11:55:47;;;;;;;29.95;16.20;;;3.30;99.90;;;;;;4993000;28;20573;-74
2023/12/03 11:58:13;;;;;;;28.38;15.77;;;3.30;99.90;;;;;;4987692;28;20062;-75
2023/12/03 12:00:40;;;;;;;27.45;14.98;;;3.30;99.90;;;;;;4985399;28;20027;-75
2023/12/03 12:03:07;;;;;;;27.08;13.95;;;3.30;99.90;;;;;;4992695;28;20018;-75
2023/12/03 12:05:41;;;;;;;29.67;15.95;;;3.30;99.90;;;;;;4991673;28;20031;-74
2023/12/03 12:08:06;;;;;;;27.25;13.95;;;3.30;99.90;;;;;;4988735;28;20034;-73
2023/12/03 12:10:33;;;;;;;28.63;14.88;;;3.40;99.90;;;;;;4990375;28;20625;-74
2023/12/03 12:13:02;;;;;;;27.05;14.05;;;3.50;99.90;;;;;;4990387;28;20121;-74
2023/12/03 12:15:28;;;;;;;26.88;15.82;;;3.50;99.90;;;;;;4991841;28;20113;-73
2023/12/03 12:17:54;;;;;;;26.10;14.48;;;3.50;99.90;;;;;;4991823;28;20181;-75
2023/12/03 12:20:29;;;;;;;29.70;15.38;;;3.60;99.90;;;;;;4992563;28;20493;-75
2023/12/03 12:22:56;;;;;;;27.50;14.75;;;3.70;99.90;;;;;;4988943;28;20489;-75
2023/12/03 12:25:25;;;;;;;27.55;14.68;;;3.60;99.90;;;;;;4990930;28;20035;-76
2023/12/03 12:27:52;;;;;;;28.27;15.27;;;3.60;99.90;;;;;;4988735;28;20030;-73
2023/12/03 12:30:22;;;;;;;28.30;15.52;;;3.60;99.90;;;;;;4991995;28;20037;-75
2023/12/03 12:32:51;;;;;;;27.38;14.25;;;3.50;99.90;;;;;;4989885;28;20057;-73
2023/12/03 12:35:21;;;;;;;28.08;15.52;;;3.60;99.90;;;;;;4992479;28;20027;-75
2023/12/03 12:37:46;;;;;;;25.35;13.98;;;3.60;99.90;;;;;;4990372;28;20046;-73